sensor_id;sensor_type;location;lat;lon;timestamp;temperature;humidity
7384;DHT22;3733;47.994;8.820;2023-10-09T00:01:26;10.50;99.90
7384;DHT22;3733;47.994;8.820;2023-10-09T00:03:52;10.50;99.90
7384;DHT22;3733;47.994;8.820;2023-10-09T00:06:21;10.50;99.90
7384;DHT22;3733;47.994;8.820;2023-10-09T00:08:56;10.40;99.90
7384;DHT22;3733;47.994;8.820;2023-10-09T00:11:23;10.40;99.90
7384;DHT22;3733;47.994;8.820;2023-10-09T00:13:55;10.40;99.90
7384;DHT22;3733;47.994;8.820;2023-10-09T00:16:24;10.40;99.90
7384;DHT22;3733;47.994;8.820;2023-10-09T00:19:04;10.40;99.90
7384;DHT22;3733;47.994;8.820;2023-10-09T00:21:47;10.40;99.90
7384;DHT22;3733;47.994;8.820;2023-10-09T00:24:14;10.30;99.90
7384;DHT22;3733;47.994;8.820;2023-10-09T00:26:45;10.30;99.90
7384;DHT22;3733;47.994;8.820;2023-10-09T00:29:14;10.30;99.90
7384;DHT22;3733;47.994;8.820;2023-10-09T00:31:42;10.30;99.90
7384;DHT22;3733;47.994;8.820;2023-10-09T00:34:16;10.20;99.90
7384;DHT22;3733;47.994;8.820;2023-10-09T00:36:46;10.20;99.90
7384;DHT22;3733;47.994;8.820;2023-10-09T00:39:21;10.20;99.90
7384;DHT22;3733;47.994;8.820;2023-10-09T00:42:10;10.20;99.90
7384;DHT22;3733;47.994;8.820;2023-10-09T00:44:41;10.20;99.90
7384;DHT22;3733;47.994;8.820;2023-10-09T00:47:08;10.10;99.90
7384;DHT22;3733;47.994;8.820;2023-10-09T00:49:51;10.10;99.90
7384;DHT22;3733;47.994;8.820;2023-10-09T00:52:28;10.10;99.90
7384;DHT22;3733;47.994;8.820;2023-10-09T00:55:17;10.00;99.90
7384;DHT22;3733;47.994;8.820;2023-10-09T00:57:48;10.00;99.90
7384;DHT22;3733;47.994;8.820;2023-10-09T01:00:26;10.00;99.90
7384;DHT22;3733;47.994;8.820;2023-10-09T01:03:04;10.00;99.90
7384;DHT22;3733;47.994;8.820;2023-10-09T01:05:46;9.90;99.90
7384;DHT22;3733;47.994;8.820;2023-10-09T01:08:29;9.90;99.90
7384;DHT22;3733;47.994;8.820;2023-10-09T01:11:03;9.90;99.90
7384;DHT22;3733;47.994;8.820;2023-10-09T01:13:39;9.80;99.90
7384;DHT22;3733;47.994;8.820;2023-10-09T01:16:12;9.80;99.90
7384;DHT22;3733;47.994;8.820;2023-10-09T01:18:41;9.80;99.90
7384;DHT22;3733;47.994;8.820;2023-10-09T01:21:07;9.80;99.90
7384;DHT22;3733;47.994;8.820;2023-10-09T01:23:33;9.80;99.90
7384;DHT22;3733;47.994;8.820;2023-10-09T01:25:59;9.80;99.90
7384;DHT22;3733;47.994;8.820;2023-10-09T01:28:24;9.80;99.90
7384;DHT22;3733;47.994;8.820;2023-10-09T01:30:51;9.80;99.90
7384;DHT22;3733;47.994;8.820;2023-10-09T01:33:17;9.70;99.90
7384;DHT22;3733;47.994;8.820;2023-10-09T01:35:48;9.70;99.90
7384;DHT22;3733;47.994;8.820;2023-10-09T01:38:16;9.70;99.90
7384;DHT22;3733;47.994;8.820;2023-10-09T01:40:41;9.60;99.90
7384;DHT22;3733;47.994;8.820;2023-10-09T01:43:09;9.60;99.90
7384;DHT22;3733;47.994;8.820;2023-10-09T01:45:37;9.60;99.90
7384;DHT22;3733;47.994;8.820;2023-10-09T01:48:07;9.60;99.90
7384;DHT22;3733;47.994;8.820;2023-10-09T01:50:34;9.60;99.90
7384;DHT22;3733;47.994;8.820;2023-10-09T01:53:04;9.60;99.90
7384;DHT22;3733;47.994;8.820;2023-10-09T01:55:33;9.60;99.90
7384;DHT22;3733;47.994;8.820;2023-10-09T01:58:00;9.60;99.90
7384;DHT22;3733;47.994;8.820;2023-10-09T02:00:33;9.60;99.90
7384;DHT22;3733;47.994;8.820;2023-10-09T02:03:07;9.50;99.90
7384;DHT22;3733;47.994;8.820;2023-10-09T02:05:38;9.50;99.90
7384;DHT22;3733;47.994;8.820;2023-10-09T02:08:04;9.50;99.90
7384;DHT22;3733;47.994;8.820;2023-10-09T02:10:31;9.50;99.90
7384;DHT22;3733;47.994;8.820;2023-10-09T02:13:05;9.50;99.90
7384;DHT22;3733;47.994;8.820;2023-10-09T02:15:33;9.50;99.90
7384;DHT22;3733;47.994;8.820;2023-10-09T02:18:09;9.40;99.90
7384;DHT22;3733;47.994;8.820;2023-10-09T02:23:14;9.40;99.90
7384;DHT22;3733;47.994;8.820;2023-10-09T02:25:42;9.40;99.90
7384;DHT22;3733;47.994;8.820;2023-10-09T02:28:11;9.40;99.90
7384;DHT22;3733;47.994;8.820;2023-10-09T02:30:45;9.30;99.90
7384;DHT22;3733;47.994;8.820;2023-10-09T02:33:14;9.30;99.90
7384;DHT22;3733;47.994;8.820;2023-10-09T02:35:44;9.30;99.90
7384;DHT22;3733;47.994;8.820;2023-10-09T02:38:10;9.30;99.90
7384;DHT22;3733;47.994;8.820;2023-10-09T02:40:40;9.20;99.90
7384;DHT22;3733;47.994;8.820;2023-10-09T02:43:36;9.20;99.90
7384;DHT22;3733;47.994;8.820;2023-10-09T02:46:14;9.20;99.90
7384;DHT22;3733;47.994;8.820;2023-10-09T02:48:44;9.10;99.90
7384;DHT22;3733;47.994;8.820;2023-10-09T02:51:19;9.20;99.90
7384;DHT22;3733;47.994;8.820;2023-10-09T02:53:59;9.10;99.90
7384;DHT22;3733;47.994;8.820;2023-10-09T02:56:27;9.10;99.90
7384;DHT22;3733;47.994;8.820;2023-10-09T02:59:04;9.00;99.90
7384;DHT22;3733;47.994;8.820;2023-10-09T03:01:38;9.00;99.90
7384;DHT22;3733;47.994;8.820;2023-10-09T03:04:04;9.00;99.90
7384;DHT22;3733;47.994;8.820;2023-10-09T03:06:34;9.00;99.90
7384;DHT22;3733;47.994;8.820;2023-10-09T03:09:01;9.00;99.90
7384;DHT22;3733;47.994;8.820;2023-10-09T03:11:50;9.00;99.90
7384;DHT22;3733;47.994;8.820;2023-10-09T03:14:22;9.00;99.90
7384;DHT22;3733;47.994;8.820;2023-10-09T03:16:52;8.90;99.90
7384;DHT22;3733;47.994;8.820;2023-10-09T03:19:18;8.90;99.90
7384;DHT22;3733;47.994;8.820;2023-10-09T03:21:43;8.90;99.90
7384;DHT22;3733;47.994;8.820;2023-10-09T03:24:10;8.90;99.90
7384;DHT22;3733;47.994;8.820;2023-10-09T03:26:36;8.90;99.90
7384;DHT22;3733;47.994;8.820;2023-10-09T03:29:02;8.90;99.90
7384;DHT22;3733;47.994;8.820;2023-10-09T03:31:35;8.90;99.90
7384;DHT22;3733;47.994;8.820;2023-10-09T03:34:02;8.90;99.90
7384;DHT22;3733;47.994;8.820;2023-10-09T03:36:29;8.90;99.90
7384;DHT22;3733;47.994;8.820;2023-10-09T03:38:56;8.90;99.90
7384;DHT22;3733;47.994;8.820;2023-10-09T03:41:24;8.80;99.90
7384;DHT22;3733;47.994;8.820;2023-10-09T03:43:52;8.80;99.90
7384;DHT22;3733;47.994;8.820;2023-10-09T03:46:20;8.80;99.90
7384;DHT22;3733;47.994;8.820;2023-10-09T03:48:58;8.80;99.90
7384;DHT22;3733;47.994;8.820;2023-10-09T03:51:27;8.80;99.90
7384;DHT22;3733;47.994;8.820;2023-10-09T03:53:52;8.80;99.90
7384;DHT22;3733;47.994;8.820;2023-10-09T03:56:18;8.80;99.90
7384;DHT22;3733;47.994;8.820;2023-10-09T03:58:48;8.80;99.90
7384;DHT22;3733;47.994;8.820;2023-10-09T04:01:19;8.80;99.90
7384;DHT22;3733;47.994;8.820;2023-10-09T04:03:49;8.90;99.90
7384;DHT22;3733;47.994;8.820;2023-10-09T04:06:16;8.90;99.90
7384;DHT22;3733;47.994;8.820;2023-10-09T04:08:43;8.90;99.90
7384;DHT22;3733;47.994;8.820;2023-10-09T04:11:14;8.90;99.90
7384;DHT22;3733;47.994;8.820;2023-10-09T04:13:45;8.90;99.90
7384;DHT22;3733;47.994;8.820;2023-10-09T04:16:12;8.90;99.90
7384;DHT22;3733;47.994;8.820;2023-10-09T04:19:01;8.90;99.90
7384;DHT22;3733;47.994;8.820;2023-10-09T04:21:33;8.90;99.90
7384;DHT22;3733;47.994;8.820;2023-10-09T04:24:08;8.90;99.90
7384;DHT22;3733;47.994;8.820;2023-10-09T04:26:40;8.90;99.90
7384;DHT22;3733;47.994;8.820;2023-10-09T04:29:13;8.90;99.90
7384;DHT22;3733;47.994;8.820;2023-10-09T04:32:03;8.90;99.90
7384;DHT22;3733;47.994;8.820;2023-10-09T04:34:33;8.90;99.90
7384;DHT22;3733;47.994;8.820;2023-10-09T04:37:03;8.90;99.90
7384;DHT22;3733;47.994;8.820;2023-10-09T04:39:48;8.90;99.90
7384;DHT22;3733;47.994;8.820;2023-10-09T04:42:15;8.90;99.90
7384;DHT22;3733;47.994;8.820;2023-10-09T04:45:08;8.90;99.90
7384;DHT22;3733;47.994;8.820;2023-10-09T04:47:36;8.90;99.90
7384;DHT22;3733;47.994;8.820;2023-10-09T04:50:03;8.90;99.90
7384;DHT22;3733;47.994;8.820;2023-10-09T04:52:37;8.90;99.90
7384;DHT22;3733;47.994;8.820;2023-10-09T04:55:03;8.90;99.90
7384;DHT22;3733;47.994;8.820;2023-10-09T04:57:33;8.80;99.90
7384;DHT22;3733;47.994;8.820;2023-10-09T05:00:15;8.80;99.90
7384;DHT22;3733;47.994;8.820;2023-10-09T05:02:55;8.80;99.90
7384;DHT22;3733;47.994;8.820;2023-10-09T05:05:27;8.80;99.90
7384;DHT22;3733;47.994;8.820;2023-10-09T05:08:17;8.80;99.90
7384;DHT22;3733;47.994;8.820;2023-10-09T05:10:49;8.70;99.90
7384;DHT22;3733;47.994;8.820;2023-10-09T05:13:32;8.70;99.90
7384;DHT22;3733;47.994;8.820;2023-10-09T05:16:04;8.70;99.90
7384;DHT22;3733;47.994;8.820;2023-10-09T05:18:30;8.70;99.90
7384;DHT22;3733;47.994;8.820;2023-10-09T05:21:02;8.70;99.90
7384;DHT22;3733;47.994;8.820;2023-10-09T05:23:47;8.70;99.90
7384;DHT22;3733;47.994;8.820;2023-10-09T05:26:35;8.60;99.90
7384;DHT22;3733;47.994;8.820;2023-10-09T05:29:14;8.60;99.90
7384;DHT22;3733;47.994;8.820;2023-10-09T05:31:58;8.60;99.90
7384;DHT22;3733;47.994;8.820;2023-10-09T05:34:45;8.60;99.90
7384;DHT22;3733;47.994;8.820;2023-10-09T05:37:27;8.60;99.90
7384;DHT22;3733;47.994;8.820;2023-10-09T05:40:00;8.60;99.90
7384;DHT22;3733;47.994;8.820;2023-10-09T05:42:34;8.60;99.90
7384;DHT22;3733;47.994;8.820;2023-10-09T05:45:06;8.60;99.90
7384;DHT22;3733;47.994;8.820;2023-10-09T05:47:49;8.60;99.90
7384;DHT22;3733;47.994;8.820;2023-10-09T05:50:34;8.60;99.90
7384;DHT22;3733;47.994;8.820;2023-10-09T05:53:01;8.70;99.90
7384;DHT22;3733;47.994;8.820;2023-10-09T05:55:29;8.70;99.90
7384;DHT22;3733;47.994;8.820;2023-10-09T05:58:13;8.70;99.90
7384;DHT22;3733;47.994;8.820;2023-10-09T06:00:58;8.70;99.90
7384;DHT22;3733;47.994;8.820;2023-10-09T06:03:42;8.70;99.90
7384;DHT22;3733;47.994;8.820;2023-10-09T06:06:15;8.80;99.90
7384;DHT22;3733;47.994;8.820;2023-10-09T06:08:59;8.90;99.90
7384;DHT22;3733;47.994;8.820;2023-10-09T06:11:41;8.90;99.90
7384;DHT22;3733;47.994;8.820;2023-10-09T06:14:07;9.00;99.90
7384;DHT22;3733;47.994;8.820;2023-10-09T06:16:41;9.00;99.90
7384;DHT22;3733;47.994;8.820;2023-10-09T06:19:11;9.10;99.90
7384;DHT22;3733;47.994;8.820;2023-10-09T06:21:41;9.20;99.90
7384;DHT22;3733;47.994;8.820;2023-10-09T06:24:19;9.20;99.90
7384;DHT22;3733;47.994;8.820;2023-10-09T06:26:48;9.30;99.90
7384;DHT22;3733;47.994;8.820;2023-10-09T06:29:38;9.40;99.90
7384;DHT22;3733;47.994;8.820;2023-10-09T06:32:11;9.50;99.90
7384;DHT22;3733;47.994;8.820;2023-10-09T06:34:53;9.50;99.90
7384;DHT22;3733;47.994;8.820;2023-10-09T06:37:39;9.60;99.90
7384;DHT22;3733;47.994;8.820;2023-10-09T06:40:24;9.70;99.90
7384;DHT22;3733;47.994;8.820;2023-10-09T06:43:05;9.70;99.90
7384;DHT22;3733;47.994;8.820;2023-10-09T06:48:45;9.90;99.90
7384;DHT22;3733;47.994;8.820;2023-10-09T06:51:12;9.90;99.90
7384;DHT22;3733;47.994;8.820;2023-10-09T06:54:01;10.10;99.90
7384;DHT22;3733;47.994;8.820;2023-10-09T06:56:35;10.10;99.90
7384;DHT22;3733;47.994;8.820;2023-10-09T06:59:02;10.20;99.90
7384;DHT22;3733;47.994;8.820;2023-10-09T07:01:47;10.20;99.90
7384;DHT22;3733;47.994;8.820;2023-10-09T07:04:33;10.30;99.90
7384;DHT22;3733;47.994;8.820;2023-10-09T07:07:02;10.40;99.90
7384;DHT22;3733;47.994;8.820;2023-10-09T07:09:33;10.50;99.90
7384;DHT22;3733;47.994;8.820;2023-10-09T07:12:08;10.60;99.90
7384;DHT22;3733;47.994;8.820;2023-10-09T07:15:01;10.70;99.90
7384;DHT22;3733;47.994;8.820;2023-10-09T07:17:46;10.80;99.90
7384;DHT22;3733;47.994;8.820;2023-10-09T07:20:12;10.90;99.90
7384;DHT22;3733;47.994;8.820;2023-10-09T07:22:56;11.00;99.90
7384;DHT22;3733;47.994;8.820;2023-10-09T07:25:39;11.20;99.90
7384;DHT22;3733;47.994;8.820;2023-10-09T07:28:10;11.40;99.90
7384;DHT22;3733;47.994;8.820;2023-10-09T07:31:04;11.50;99.90
7384;DHT22;3733;47.994;8.820;2023-10-09T07:33:34;11.80;99.90
7384;DHT22;3733;47.994;8.820;2023-10-09T07:36:17;11.90;99.90
7384;DHT22;3733;47.994;8.820;2023-10-09T07:38:55;12.10;99.90
7384;DHT22;3733;47.994;8.820;2023-10-09T07:41:21;12.20;99.90
7384;DHT22;3733;47.994;8.820;2023-10-09T07:43:46;12.40;99.90
7384;DHT22;3733;47.994;8.820;2023-10-09T07:46:14;12.40;99.90
7384;DHT22;3733;47.994;8.820;2023-10-09T07:49:03;12.60;99.90
7384;DHT22;3733;47.994;8.820;2023-10-09T07:51:38;12.70;99.90
7384;DHT22;3733;47.994;8.820;2023-10-09T07:54:04;12.80;99.90
7384;DHT22;3733;47.994;8.820;2023-10-09T07:59:05;13.00;99.90
7384;DHT22;3733;47.994;8.820;2023-10-09T08:04:26;13.30;99.90
7384;DHT22;3733;47.994;8.820;2023-10-09T08:07:24;13.40;99.90
7384;DHT22;3733;47.994;8.820;2023-10-09T08:10:04;13.50;99.90
7384;DHT22;3733;47.994;8.820;2023-10-09T08:12:45;13.60;99.90
7384;DHT22;3733;47.994;8.820;2023-10-09T08:15:23;13.80;99.90
7384;DHT22;3733;47.994;8.820;2023-10-09T08:17:57;13.90;99.90
7384;DHT22;3733;47.994;8.820;2023-10-09T08:20:29;14.00;99.90
7384;DHT22;3733;47.994;8.820;2023-10-09T08:23:14;14.20;99.90
7384;DHT22;3733;47.994;8.820;2023-10-09T08:26:08;14.30;99.90
7384;DHT22;3733;47.994;8.820;2023-10-09T08:28:44;14.40;99.90
7384;DHT22;3733;47.994;8.820;2023-10-09T08:31:17;14.40;99.90
7384;DHT22;3733;47.994;8.820;2023-10-09T08:34:11;14.50;99.90
7384;DHT22;3733;47.994;8.820;2023-10-09T08:36:49;14.60;99.90
7384;DHT22;3733;47.994;8.820;2023-10-09T08:39:18;14.60;99.90
7384;DHT22;3733;47.994;8.820;2023-10-09T08:41:51;14.70;99.90
7384;DHT22;3733;47.994;8.820;2023-10-09T08:44:19;14.80;99.90
7384;DHT22;3733;47.994;8.820;2023-10-09T08:46:49;14.90;99.90
7384;DHT22;3733;47.994;8.820;2023-10-09T08:49:16;15.10;99.90
7384;DHT22;3733;47.994;8.820;2023-10-09T08:51:42;15.20;99.90
7384;DHT22;3733;47.994;8.820;2023-10-09T08:54:08;15.50;99.90
7384;DHT22;3733;47.994;8.820;2023-10-09T08:56:37;15.60;99.90
7384;DHT22;3733;47.994;8.820;2023-10-09T08:59:05;15.80;99.90
7384;DHT22;3733;47.994;8.820;2023-10-09T09:01:31;16.00;99.90
7384;DHT22;3733;47.994;8.820;2023-10-09T09:03:59;16.20;99.90
7384;DHT22;3733;47.994;8.820;2023-10-09T09:06:36;16.30;99.90
7384;DHT22;3733;47.994;8.820;2023-10-09T09:09:13;16.50;99.90
7384;DHT22;3733;47.994;8.820;2023-10-09T09:11:42;16.60;99.90
7384;DHT22;3733;47.994;8.820;2023-10-09T09:14:14;16.70;99.90
7384;DHT22;3733;47.994;8.820;2023-10-09T09:16:45;16.80;99.90
7384;DHT22;3733;47.994;8.820;2023-10-09T09:19:14;16.90;99.90
7384;DHT22;3733;47.994;8.820;2023-10-09T09:21:50;17.00;99.90
7384;DHT22;3733;47.994;8.820;2023-10-09T09:24:20;17.00;99.90
7384;DHT22;3733;47.994;8.820;2023-10-09T09:26:53;17.10;95.50
7384;DHT22;3733;47.994;8.820;2023-10-09T09:29:40;17.20;74.90
7384;DHT22;3733;47.994;8.820;2023-10-09T09:32:07;17.50;64.10
7384;DHT22;3733;47.994;8.820;2023-10-09T09:34:53;17.70;63.40
7384;DHT22;3733;47.994;8.820;2023-10-09T09:37:33;17.90;62.60
7384;DHT22;3733;47.994;8.820;2023-10-09T09:40:08;18.10;59.70
7384;DHT22;3733;47.994;8.820;2023-10-09T09:42:58;18.40;56.40
7384;DHT22;3733;47.994;8.820;2023-10-09T09:45:35;18.60;54.70
7384;DHT22;3733;47.994;8.820;2023-10-09T09:48:03;18.90;53.00
7384;DHT22;3733;47.994;8.820;2023-10-09T09:50:32;19.00;52.20
7384;DHT22;3733;47.994;8.820;2023-10-09T09:52:59;19.20;52.00
7384;DHT22;3733;47.994;8.820;2023-10-09T09:55:29;19.30;50.70
7384;DHT22;3733;47.994;8.820;2023-10-09T09:57:57;19.50;50.30
7384;DHT22;3733;47.994;8.820;2023-10-09T10:00:28;19.60;50.90
7384;DHT22;3733;47.994;8.820;2023-10-09T10:03:09;19.70;51.70
7384;DHT22;3733;47.994;8.820;2023-10-09T10:05:36;19.80;49.50
7384;DHT22;3733;47.994;8.820;2023-10-09T10:08:03;19.80;50.40
7384;DHT22;3733;47.994;8.820;2023-10-09T10:10:40;19.90;50.30
7384;DHT22;3733;47.994;8.820;2023-10-09T10:16:13;20.00;49.20
7384;DHT22;3733;47.994;8.820;2023-10-09T10:21:26;20.10;48.30
7384;DHT22;3733;47.994;8.820;2023-10-09T10:23:57;20.20;49.10
7384;DHT22;3733;47.994;8.820;2023-10-09T10:26:38;20.30;50.80
7384;DHT22;3733;47.994;8.820;2023-10-09T10:29:19;20.40;52.30
7384;DHT22;3733;47.994;8.820;2023-10-09T10:32:01;20.50;53.60
7384;DHT22;3733;47.994;8.820;2023-10-09T10:34:53;20.50;54.40
7384;DHT22;3733;47.994;8.820;2023-10-09T10:40:06;20.60;55.50
7384;DHT22;3733;47.994;8.820;2023-10-09T10:42:49;20.60;55.40
7384;DHT22;3733;47.994;8.820;2023-10-09T10:45:35;20.60;55.50
7384;DHT22;3733;47.994;8.820;2023-10-09T10:48:04;20.70;55.40
7384;DHT22;3733;47.994;8.820;2023-10-09T10:50:34;20.70;55.10
7384;DHT22;3733;47.994;8.820;2023-10-09T10:53:12;20.70;56.00
7384;DHT22;3733;47.994;8.820;2023-10-09T10:56:00;20.70;56.10
7384;DHT22;3733;47.994;8.820;2023-10-09T10:58:54;20.60;56.10
7384;DHT22;3733;47.994;8.820;2023-10-09T11:01:33;20.60;56.40
7384;DHT22;3733;47.994;8.820;2023-10-09T11:04:18;20.50;56.60
7384;DHT22;3733;47.994;8.820;2023-10-09T11:06:57;20.50;56.80
7384;DHT22;3733;47.994;8.820;2023-10-09T11:09:52;20.50;57.20
7384;DHT22;3733;47.994;8.820;2023-10-09T11:12:30;20.50;58.10
7384;DHT22;3733;47.994;8.820;2023-10-09T11:15:09;20.50;58.20
7384;DHT22;3733;47.994;8.820;2023-10-09T11:20:43;20.40;59.00
7384;DHT22;3733;47.994;8.820;2023-10-09T11:23:23;20.40;59.10
7384;DHT22;3733;47.994;8.820;2023-10-09T11:26:02;20.50;59.20
7384;DHT22;3733;47.994;8.820;2023-10-09T11:29:14;20.50;59.40
7384;DHT22;3733;47.994;8.820;2023-10-09T11:31:58;20.60;59.60
7384;DHT22;3733;47.994;8.820;2023-10-09T11:34:29;20.60;59.50
7384;DHT22;3733;47.994;8.820;2023-10-09T11:37:03;20.70;59.20
7384;DHT22;3733;47.994;8.820;2023-10-09T11:39:34;20.70;59.40
7384;DHT22;3733;47.994;8.820;2023-10-09T11:42:07;20.80;59.70
7384;DHT22;3733;47.994;8.820;2023-10-09T11:44:41;20.80;59.80
7384;DHT22;3733;47.994;8.820;2023-10-09T11:47:10;20.80;59.80
7384;DHT22;3733;47.994;8.820;2023-10-09T11:52:27;20.80;60.00
7384;DHT22;3733;47.994;8.820;2023-10-09T11:55:06;20.80;59.80
7384;DHT22;3733;47.994;8.820;2023-10-09T11:57:33;20.80;59.80
7384;DHT22;3733;47.994;8.820;2023-10-09T12:00:03;20.80;60.50
7384;DHT22;3733;47.994;8.820;2023-10-09T12:02:52;20.80;59.90
7384;DHT22;3733;47.994;8.820;2023-10-09T12:05:19;20.90;59.30
7384;DHT22;3733;47.994;8.820;2023-10-09T12:07:47;20.90;59.10
7384;DHT22;3733;47.994;8.820;2023-10-09T12:10:21;20.90;58.60
7384;DHT22;3733;47.994;8.820;2023-10-09T12:12:53;21.00;53.50
7384;DHT22;3733;47.994;8.820;2023-10-09T12:15:23;21.00;51.20
7384;DHT22;3733;47.994;8.820;2023-10-09T12:17:49;21.10;50.50
7384;DHT22;3733;47.994;8.820;2023-10-09T12:20:18;21.20;49.50
7384;DHT22;3733;47.994;8.820;2023-10-09T12:22:58;21.20;49.50
7384;DHT22;3733;47.994;8.820;2023-10-09T12:25:25;21.30;50.20
7384;DHT22;3733;47.994;8.820;2023-10-09T12:27:50;21.40;49.60
7384;DHT22;3733;47.994;8.820;2023-10-09T12:30:20;21.50;52.40
7384;DHT22;3733;47.994;8.820;2023-10-09T12:32:52;21.60;54.30
7384;DHT22;3733;47.994;8.820;2023-10-09T12:35:18;21.70;56.00
7384;DHT22;3733;47.994;8.820;2023-10-09T12:37:44;21.70;56.90
7384;DHT22;3733;47.994;8.820;2023-10-09T12:40:10;21.70;57.30
7384;DHT22;3733;47.994;8.820;2023-10-09T12:42:36;21.70;58.00
7384;DHT22;3733;47.994;8.820;2023-10-09T12:45:03;21.70;58.30
7384;DHT22;3733;47.994;8.820;2023-10-09T12:47:34;21.70;58.70
7384;DHT22;3733;47.994;8.820;2023-10-09T12:50:05;21.70;59.10
7384;DHT22;3733;47.994;8.820;2023-10-09T12:52:38;21.70;59.30
7384;DHT22;3733;47.994;8.820;2023-10-09T12:55:04;21.80;59.70
7384;DHT22;3733;47.994;8.820;2023-10-09T12:57:34;21.80;59.80
7384;DHT22;3733;47.994;8.820;2023-10-09T12:59:59;21.90;60.10
7384;DHT22;3733;47.994;8.820;2023-10-09T13:02:25;21.90;60.60
7384;DHT22;3733;47.994;8.820;2023-10-09T13:04:55;21.80;60.80
7384;DHT22;3733;47.994;8.820;2023-10-09T13:07:21;21.70;60.70
7384;DHT22;3733;47.994;8.820;2023-10-09T13:09:48;21.60;61.30
7384;DHT22;3733;47.994;8.820;2023-10-09T13:12:34;21.50;61.90
7384;DHT22;3733;47.994;8.820;2023-10-09T13:15:05;21.50;62.10
7384;DHT22;3733;47.994;8.820;2023-10-09T13:17:35;21.40;62.30
7384;DHT22;3733;47.994;8.820;2023-10-09T13:20:02;21.30;62.60
7384;DHT22;3733;47.994;8.820;2023-10-09T13:22:41;21.20;62.60
7384;DHT22;3733;47.994;8.820;2023-10-09T13:25:08;21.20;62.80
7384;DHT22;3733;47.994;8.820;2023-10-09T13:27:44;21.20;63.10
7384;DHT22;3733;47.994;8.820;2023-10-09T13:30:19;21.10;63.00
7384;DHT22;3733;47.994;8.820;2023-10-09T13:32:51;21.00;63.20
7384;DHT22;3733;47.994;8.820;2023-10-09T13:35:20;21.00;63.70
7384;DHT22;3733;47.994;8.820;2023-10-09T13:37:53;20.90;63.90
7384;DHT22;3733;47.994;8.820;2023-10-09T13:40:22;20.90;63.70
7384;DHT22;3733;47.994;8.820;2023-10-09T13:42:56;20.90;63.50
7384;DHT22;3733;47.994;8.820;2023-10-09T13:45:26;20.80;63.50
7384;DHT22;3733;47.994;8.820;2023-10-09T13:47:56;20.80;63.50
7384;DHT22;3733;47.994;8.820;2023-10-09T13:50:25;20.80;63.70
7384;DHT22;3733;47.994;8.820;2023-10-09T13:52:58;20.80;63.80
7384;DHT22;3733;47.994;8.820;2023-10-09T13:55:24;20.90;63.90
7384;DHT22;3733;47.994;8.820;2023-10-09T13:57:57;20.90;64.00
7384;DHT22;3733;47.994;8.820;2023-10-09T14:00:23;20.90;64.00
7384;DHT22;3733;47.994;8.820;2023-10-09T14:03:07;20.90;64.20
7384;DHT22;3733;47.994;8.820;2023-10-09T14:05:40;20.90;64.30
7384;DHT22;3733;47.994;8.820;2023-10-09T14:08:22;21.00;64.50
7384;DHT22;3733;47.994;8.820;2023-10-09T14:10:49;21.00;64.80
7384;DHT22;3733;47.994;8.820;2023-10-09T14:13:18;21.00;64.50
7384;DHT22;3733;47.994;8.820;2023-10-09T14:15:54;21.10;64.40
7384;DHT22;3733;47.994;8.820;2023-10-09T14:18:21;21.20;63.90
7384;DHT22;3733;47.994;8.820;2023-10-09T14:20:47;21.40;63.00
7384;DHT22;3733;47.994;8.820;2023-10-09T14:23:12;21.50;62.60
7384;DHT22;3733;47.994;8.820;2023-10-09T14:25:46;21.70;62.40
7384;DHT22;3733;47.994;8.820;2023-10-09T14:28:15;22.10;61.80
7384;DHT22;3733;47.994;8.820;2023-10-09T14:30:44;22.40;60.40
7384;DHT22;3733;47.994;8.820;2023-10-09T14:33:12;22.40;59.70
7384;DHT22;3733;47.994;8.820;2023-10-09T14:35:39;22.40;59.40
7384;DHT22;3733;47.994;8.820;2023-10-09T14:38:06;22.30;59.30
7384;DHT22;3733;47.994;8.820;2023-10-09T14:40:43;22.20;59.60
7384;DHT22;3733;47.994;8.820;2023-10-09T14:43:10;22.10;59.80
7384;DHT22;3733;47.994;8.820;2023-10-09T14:45:47;22.10;60.50
7384;DHT22;3733;47.994;8.820;2023-10-09T14:48:19;22.30;60.60
7384;DHT22;3733;47.994;8.820;2023-10-09T14:50:52;22.80;59.60
7384;DHT22;3733;47.994;8.820;2023-10-09T14:53:30;23.00;58.20
7384;DHT22;3733;47.994;8.820;2023-10-09T14:55:56;22.80;58.00
7384;DHT22;3733;47.994;8.820;2023-10-09T14:58:22;22.60;57.90
7384;DHT22;3733;47.994;8.820;2023-10-09T15:00:51;22.30;58.40
7384;DHT22;3733;47.994;8.820;2023-10-09T15:03:18;22.00;59.00
7384;DHT22;3733;47.994;8.820;2023-10-09T15:05:45;21.80;59.80
7384;DHT22;3733;47.994;8.820;2023-10-09T15:08:11;21.50;60.40
7384;DHT22;3733;47.994;8.820;2023-10-09T15:10:50;21.40;61.20
7384;DHT22;3733;47.994;8.820;2023-10-09T15:13:22;21.20;61.80
7384;DHT22;3733;47.994;8.820;2023-10-09T15:15:53;21.10;62.30
7384;DHT22;3733;47.994;8.820;2023-10-09T15:18:20;20.90;62.80
7384;DHT22;3733;47.994;8.820;2023-10-09T15:20:47;20.80;63.30
7384;DHT22;3733;47.994;8.820;2023-10-09T15:23:13;20.70;63.70
7384;DHT22;3733;47.994;8.820;2023-10-09T15:25:39;20.70;64.10
7384;DHT22;3733;47.994;8.820;2023-10-09T15:28:08;20.60;64.20
7384;DHT22;3733;47.994;8.820;2023-10-09T15:30:35;20.50;64.30
7384;DHT22;3733;47.994;8.820;2023-10-09T15:33:04;20.50;64.60
7384;DHT22;3733;47.994;8.820;2023-10-09T15:35:31;20.40;64.70
7384;DHT22;3733;47.994;8.820;2023-10-09T15:38:02;20.40;64.90
7384;DHT22;3733;47.994;8.820;2023-10-09T15:40:31;20.30;65.00
7384;DHT22;3733;47.994;8.820;2023-10-09T15:43:00;20.30;65.30
7384;DHT22;3733;47.994;8.820;2023-10-09T15:45:26;20.30;65.70
7384;DHT22;3733;47.994;8.820;2023-10-09T15:47:55;20.20;65.80
7384;DHT22;3733;47.994;8.820;2023-10-09T15:50:21;20.10;66.00
7384;DHT22;3733;47.994;8.820;2023-10-09T15:52:53;20.10;66.30
7384;DHT22;3733;47.994;8.820;2023-10-09T15:55:22;20.10;66.80
7384;DHT22;3733;47.994;8.820;2023-10-09T15:57:51;20.00;68.50
7384;DHT22;3733;47.994;8.820;2023-10-09T16:00:21;19.90;70.70
7384;DHT22;3733;47.994;8.820;2023-10-09T16:02:48;19.80;73.30
7384;DHT22;3733;47.994;8.820;2023-10-09T16:05:14;19.70;75.50
7384;DHT22;3733;47.994;8.820;2023-10-09T16:07:42;19.60;77.70
7384;DHT22;3733;47.994;8.820;2023-10-09T16:10:09;19.60;81.40
7384;DHT22;3733;47.994;8.820;2023-10-09T16:12:39;19.50;84.80
7384;DHT22;3733;47.994;8.820;2023-10-09T16:15:05;19.40;87.30
7384;DHT22;3733;47.994;8.820;2023-10-09T16:17:32;19.30;89.60
7384;DHT22;3733;47.994;8.820;2023-10-09T16:19:59;19.30;90.50
7384;DHT22;3733;47.994;8.820;2023-10-09T16:22:25;19.20;91.70
7384;DHT22;3733;47.994;8.820;2023-10-09T16:24:59;19.10;93.00
7384;DHT22;3733;47.994;8.820;2023-10-09T16:27:37;19.00;93.70
7384;DHT22;3733;47.994;8.820;2023-10-09T16:30:06;19.00;95.00
7384;DHT22;3733;47.994;8.820;2023-10-09T16:32:38;18.90;96.40
7384;DHT22;3733;47.994;8.820;2023-10-09T16:35:04;18.80;97.60
7384;DHT22;3733;47.994;8.820;2023-10-09T16:37:30;18.70;98.60
7384;DHT22;3733;47.994;8.820;2023-10-09T16:39:59;18.60;99.90
7384;DHT22;3733;47.994;8.820;2023-10-09T16:42:27;18.50;99.90
7384;DHT22;3733;47.994;8.820;2023-10-09T16:44:52;18.40;99.90
7384;DHT22;3733;47.994;8.820;2023-10-09T16:47:21;18.30;99.90
7384;DHT22;3733;47.994;8.820;2023-10-09T16:49:47;18.20;99.90
7384;DHT22;3733;47.994;8.820;2023-10-09T16:52:17;18.10;99.90
7384;DHT22;3733;47.994;8.820;2023-10-09T16:54:42;18.10;99.90
7384;DHT22;3733;47.994;8.820;2023-10-09T16:57:09;18.00;99.90
7384;DHT22;3733;47.994;8.820;2023-10-09T16:59:36;17.90;99.90
7384;DHT22;3733;47.994;8.820;2023-10-09T17:02:01;17.80;99.90
7384;DHT22;3733;47.994;8.820;2023-10-09T17:04:31;17.70;99.90
7384;DHT22;3733;47.994;8.820;2023-10-09T17:06:59;17.60;99.90
7384;DHT22;3733;47.994;8.820;2023-10-09T17:09:27;17.50;99.90